Time;durP1;ratioP1;P1;durP2;ratioP2;P2;SDS_P1;SDS_P2;PMS_P1;PMS_P2;Temp;Humidity;BMP_temperature;BMP_pressure;BME280_temperature;BME280_humidity;BME280_pressure;Samples;Min_cycle;Max_cycle;Signal;HPM_P1;HPM_P2
2023/12/02 00:07:59;;;;;;;38.25;16.27;;;;;;;;;;6225764;22;20106;-83
2023/12/02 00:14:58;;;;;;;32.63;16.83;;;;;;;;;;6083038;23;20437;-83
2023/12/02 00:17:58;;;;;;;33.95;16.33;;;;;;;;;;6146602;23;20021;-82
2023/12/02 00:21:12;;;;;;;32.53;15.43;;;;;;;;;;6009078;23;20777;-82
2023/12/02 00:24:09;;;;;;;36.67;16.63;;;;;;;;;;6150794;23;20024;-83
2023/12/02 00:26:50;;;;;;;27.30;14.70;;;;;;;;;;6086163;23;20052;-82
2023/12/02 00:33:21;;;;;;;;;;;;;;;;;;;;;
2023/12/02 00:36:56;;;;;;;;;;;;;;;;;;;;;
2023/12/02 00:40:26;;;;;;;;;;;;;;;;;;;;;
2023/12/02 00:43:27;;;;;;;34.83;16.75;;;;;;;;;;6207550;23;20377;-82
2023/12/02 00:46:55;;;;;;;31.35;14.85;;;;;;;;;;6180327;23;20044;-82
2023/12/02 01:06:45;;;;;;;32.00;14.75;;;;;;;;;;6022569;23;20023;-83
2023/12/02 01:13:25;;;;;;;;;;;;;;;;;;;;;
2023/12/02 01:19:56;;;;;;;33.45;15.88;;;;;;;;;;6161840;23;20092;-82
2023/12/02 01:23:25;;;;;;;33.15;16.05;;;;;;;;;;6031994;23;20022;-82
2023/12/02 01:26:28;;;;;;;;;;;;;;;;;;;;;
2023/12/02 01:33:11;;;;;;;;;;;;;;;;;;;;;
2023/12/02 01:39:47;;;;;;;32.47;14.30;;;;;;;;;;6261797;22;20157;-82
2023/12/02 01:42:54;;;;;;;30.70;14.68;;;;;;;;;;6291116;22;20019;-82
2023/12/02 01:45:34;;;;;;;30.87;14.60;;;;;;;;;;6263772;22;20101;-82
2023/12/02 01:48:26;;;;;;;31.67;14.80;;;;;;;;;;6270214;22;20007;-82
2023/12/02 01:54:41;;;;;;;37.72;16.20;;;;;;;;;;6277736;22;20115;-83
2023/12/02 02:00:52;;;;;;;33.47;14.90;;;;;;;;;;6256179;22;20020;-82
2023/12/02 02:03:59;;;;;;;;;;;;;;;;;;;;;
2023/12/02 02:06:58;;;;;;;32.13;14.98;;;;;;;;;;6049368;23;20022;-83
2023/12/02 02:13:13;;;;;;;28.67;15.02;;;;;;;;;;6311992;22;20027;-82
2023/12/02 02:26:47;;;;;;;32.53;14.70;;;;;;;;;;6334003;22;20493;-85
2023/12/02 02:38:54;;;;;;;29.47;14.47;;;;;;;;;;6289419;22;20098;-85
2023/12/02 02:41:20;;;;;;;30.40;14.98;;;;;;;;;;6266086;22;20103;-86
2023/12/02 02:43:46;;;;;;;35.35;16.40;;;;;;;;;;6262090;22;20090;-85
2023/12/02 02:46:16;;;;;;;32.40;14.73;;;;;;;;;;6294722;22;20519;-85
2023/12/02 02:48:42;;;;;;;29.60;14.95;;;;;;;;;;6262635;22;20521;-85
2023/12/02 02:51:08;;;;;;;30.80;15.52;;;;;;;;;;6238840;22;20115;-85
2023/12/02 02:53:34;;;;;;;32.28;15.13;;;;;;;;;;6265642;22;20015;-86
2023/12/02 02:56:00;;;;;;;28.08;14.65;;;;;;;;;;6239370;22;20644;-85
2023/12/02 02:58:28;;;;;;;33.25;15.93;;;;;;;;;;6216066;22;20451;-86
2023/12/02 03:00:54;;;;;;;33.55;15.48;;;;;;;;;;6239669;22;20392;-86
2023/12/02 03:03:20;;;;;;;33.97;16.53;;;;;;;;;;6214862;22;20026;-85
2023/12/02 03:05:46;;;;;;;35.53;15.15;;;;;;;;;;6239705;22;20011;-86
2023/12/02 03:08:12;;;;;;;31.13;15.20;;;;;;;;;;6216632;22;20015;-85
2023/12/02 03:10:38;;;;;;;31.90;16.20;;;;;;;;;;6267777;22;20116;-85
2023/12/02 03:13:04;;;;;;;29.58;16.52;;;;;;;;;;6212848;22;20457;-85
2023/12/02 03:15:30;;;;;;;31.23;15.68;;;;;;;;;;6242809;22;20340;-85
2023/12/02 03:17:56;;;;;;;30.48;15.20;;;;;;;;;;6207153;22;20019;-85
2023/12/02 03:20:22;;;;;;;31.60;15.27;;;;;;;;;;6209990;22;20411;-85
2023/12/02 03:22:48;;;;;;;33.95;13.98;;;;;;;;;;6234269;22;20051;-86
2023/12/02 03:25:15;;;;;;;30.27;14.45;;;;;;;;;;6184517;22;20090;-86
2023/12/02 03:27:41;;;;;;;33.43;15.77;;;;;;;;;;6206098;22;20027;-86
2023/12/02 03:30:07;;;;;;;31.88;15.63;;;;;;;;;;6185515;22;20012;-85
2023/12/02 03:32:33;;;;;;;31.17;15.00;;;;;;;;;;6235463;22;20018;-86
2023/12/02 03:34:59;;;;;;;31.48;15.65;;;;;;;;;;6207859;22;20462;-85
2023/12/02 03:37:25;;;;;;;34.50;15.88;;;;;;;;;;6185552;22;20020;-85
2023/12/02 03:39:51;;;;;;;30.58;14.82;;;;;;;;;;6206930;22;20471;-85
2023/12/02 03:42:17;;;;;;;35.25;15.93;;;;;;;;;;6184274;22;20058;-85
2023/12/02 03:44:43;;;;;;;32.40;15.52;;;;;;;;;;6181582;22;20406;-85
2023/12/02 03:47:09;;;;;;;28.47;14.57;;;;;;;;;;6235457;22;20081;-85
2023/12/02 03:49:35;;;;;;;29.70;15.27;;;;;;;;;;6183564;22;20016;-86
2023/12/02 03:52:01;;;;;;;33.65;16.60;;;;;;;;;;6182600;22;20604;-85
2023/12/02 03:54:27;;;;;;;28.90;15.60;;;;;;;;;;6175827;23;20023;-85
2023/12/02 03:56:53;;;;;;;26.35;14.07;;;;;;;;;;6204253;22;20015;-85
2023/12/02 03:59:19;;;;;;;28.05;15.35;;;;;;;;;;6185363;22;20544;-85
2023/12/02 04:01:46;;;;;;;33.22;15.63;;;;;;;;;;6257706;22;20034;-86
2023/12/02 04:04:13;;;;;;;29.67;14.85;;;;;;;;;;6183274;22;20019;-85
2023/12/02 04:06:39;;;;;;;32.35;16.10;;;;;;;;;;6183852;22;20019;-85
2023/12/02 04:09:05;;;;;;;28.25;14.48;;;;;;;;;;6185189;22;20353;-86
2023/12/02 04:11:32;;;;;;;33.63;15.83;;;;;;;;;;6209850;22;20341;-85
2023/12/02 04:13:58;;;;;;;31.85;15.55;;;;;;;;;;6205901;22;20202;-86
2023/12/02 04:16:24;;;;;;;30.88;15.35;;;;;;;;;;6186566;22;20490;-86
2023/12/02 04:18:50;;;;;;;32.40;15.52;;;;;;;;;;6184632;22;20534;-86
2023/12/02 04:21:16;;;;;;;31.20;15.32;;;;;;;;;;6211044;22;20012;-86
2023/12/02 04:23:41;;;;;;;28.05;15.15;;;;;;;;;;6207557;22;20402;-86
2023/12/02 04:26:07;;;;;;;31.50;14.73;;;;;;;;;;6209639;22;20012;-85
2023/12/02 04:28:34;;;;;;;29.27;15.05;;;;;;;;;;6186258;22;20019;-86
2023/12/02 04:31:00;;;;;;;31.10;15.25;;;;;;;;;;6183355;22;20420;-86
2023/12/02 04:33:25;;;;;;;28.70;14.40;;;;;;;;;;6211811;22;20026;-86
2023/12/02 04:35:52;;;;;;;27.98;14.35;;;;;;;;;;6209626;22;20016;-85
2023/12/02 04:38:18;;;;;;;32.08;15.05;;;;;;;;;;6205048;22;20423;-86
2023/12/02 04:40:44;;;;;;;28.20;14.73;;;;;;;;;;6238932;22;20080;-85
2023/12/02 04:43:09;;;;;;;30.55;15.38;;;;;;;;;;6241918;22;20458;-86
2023/12/02 04:45:36;;;;;;;30.90;15.55;;;;;;;;;;6240654;22;20019;-86
2023/12/02 04:48:02;;;;;;;30.95;13.85;;;;;;;;;;6262668;22;20430;-85
2023/12/02 04:50:28;;;;;;;30.87;15.63;;;;;;;;;;6212831;22;20023;-86
2023/12/02 04:52:54;;;;;;;29.38;15.35;;;;;;;;;;6212035;22;20022;-85
2023/12/02 04:55:20;;;;;;;29.05;14.23;;;;;;;;;;6213576;22;20027;-85
2023/12/02 04:57:46;;;;;;;29.52;13.10;;;;;;;;;;6237509;22;20019;-85
2023/12/02 05:00:16;;;;;;;29.70;14.73;;;;;;;;;;6215560;22;20593;-86
2023/12/02 05:02:42;;;;;;;30.10;13.93;;;;;;;;;;6211427;22;20546;-86
2023/12/02 05:05:09;;;;;;;27.73;13.38;;;;;;;;;;6214289;22;20054;-86
2023/12/02 05:07:35;;;;;;;29.00;14.02;;;;;;;;;;6214665;22;20061;-85
2023/12/02 05:10:01;;;;;;;31.20;14.77;;;;;;;;;;6237680;22;20448;-86
2023/12/02 05:12:27;;;;;;;29.85;14.75;;;;;;;;;;6214156;22;20102;-86
2023/12/02 05:14:53;;;;;;;26.58;13.90;;;;;;;;;;6237415;22;20025;-86
2023/12/02 05:17:19;;;;;;;28.77;14.27;;;;;;;;;;6215142;22;20011;-86
2023/12/02 05:19:45;;;;;;;29.17;14.80;;;;;;;;;;6239847;22;20011;-86
2023/12/02 05:22:11;;;;;;;30.15;13.98;;;;;;;;;;6216217;22;20015;-85
2023/12/02 05:24:37;;;;;;;29.33;15.07;;;;;;;;;;6216277;22;20018;-85
2023/12/02 05:27:03;;;;;;;30.15;13.52;;;;;;;;;;6237730;22;20619;-85
2023/12/02 05:29:29;;;;;;;30.63;14.35;;;;;;;;;;6215846;22;20163;-86
2023/12/02 05:31:55;;;;;;;32.45;15.25;;;;;;;;;;6235424;22;20057;-86
2023/12/02 05:34:22;;;;;;;29.70;14.65;;;;;;;;;;6238962;22;20015;-85
2023/12/02 05:36:48;;;;;;;27.83;13.75;;;;;;;;;;6212209;22;20027;-85
2023/12/02 05:39:14;;;;;;;27.20;14.82;;;;;;;;;;6215705;22;20482;-86
2023/12/02 05:41:42;;;;;;;26.92;14.23;;;;;;;;;;6212142;22;20015;-86
2023/12/02 05:44:09;;;;;;;28.88;13.32;;;;;;;;;;6240440;22;20023;-85
2023/12/02 05:46:36;;;;;;;30.98;15.30;;;;;;;;;;6215555;22;20015;-85
2023/12/02 05:49:02;;;;;;;29.40;14.32;;;;;;;;;;6263975;22;20015;-86
2023/12/02 05:51:28;;;;;;;27.95;15.07;;;;;;;;;;6266429;22;20359;-85
2023/12/02 05:53:54;;;;;;;28.55;14.95;;;;;;;;;;6215231;22;20019;-85
2023/12/02 05:56:21;;;;;;;24.83;12.67;;;;;;;;;;6268553;22;20466;-86
2023/12/02 05:58:48;;;;;;;29.65;14.75;;;;;;;;;;6263415;22;20347;-86
2023/12/02 06:01:19;;;;;;;34.70;14.35;;;;;;;;;;6265223;22;20542;-86
2023/12/02 06:03:45;;;;;;;27.67;13.25;;;;;;;;;;6262822;22;20015;-86
2023/12/02 06:06:11;;;;;;;29.83;15.30;;;;;;;;;;6268251;22;20023;-86
2023/12/02 06:08:37;;;;;;;31.37;14.30;;;;;;;;;;6215918;22;20126;-86
2023/12/02 06:11:03;;;;;;;27.85;14.80;;;;;;;;;;6263392;22;20342;-86
2023/12/02 06:13:29;;;;;;;34.08;15.32;;;;;;;;;;6266075;22;20526;-86
2023/12/02 06:15:55;;;;;;;29.25;14.15;;;;;;;;;;6212793;22;20041;-85
2023/12/02 06:18:21;;;;;;;28.75;14.38;;;;;;;;;;6215719;22;20076;-85
2023/12/02 06:20:47;;;;;;;32.37;14.63;;;;;;;;;;6263933;22;20019;-85
2023/12/02 06:23:13;;;;;;;32.97;15.50;;;;;;;;;;6216504;22;20331;-86
2023/12/02 06:25:39;;;;;;;31.00;15.37;;;;;;;;;;6215146;22;20015;-85
2023/12/02 06:28:06;;;;;;;35.58;14.93;;;;;;;;;;6266517;22;20015;-85
2023/12/02 06:30:32;;;;;;;31.42;14.65;;;;;;;;;;6214959;22;20019;-86
2023/12/02 06:32:58;;;;;;;29.07;14.43;;;;;;;;;;6264961;22;20355;-86
2023/12/02 06:35:24;;;;;;;35.25;14.30;;;;;;;;;;6216538;22;20034;-85
2023/12/02 06:37:50;;;;;;;30.33;14.65;;;;;;;;;;6208010;22;20027;-86
2023/12/02 06:40:17;;;;;;;31.65;14.60;;;;;;;;;;6239933;22;20086;-86
2023/12/02 06:42:43;;;;;;;30.95;13.60;;;;;;;;;;6236991;22;20008;-86
2023/12/02 06:45:09;;;;;;;34.10;14.23;;;;;;;;;;6238925;22;20019;-86
2023/12/02 06:47:36;;;;;;;33.10;15.35;;;;;;;;;;6212132;22;20011;-86
2023/12/02 06:50:03;;;;;;;28.30;14.27;;;;;;;;;;6237895;22;20514;-86
2023/12/02 06:52:29;;;;;;;29.33;14.45;;;;;;;;;;6214627;22;20019;-86
2023/12/02 06:54:55;;;;;;;31.23;14.50;;;;;;;;;;6239220;22;20026;-86
2023/12/02 06:57:21;;;;;;;31.37;14.83;;;;;;;;;;6264491;22;20019;-86
2023/12/02 06:59:47;;;;;;;30.70;14.20;;;;;;;;;;6237017;22;20438;-85
2023/12/02 07:02:13;;;;;;;32.10;14.85;;;;;;;;;;6241749;22;20102;-86
2023/12/02 07:04:39;;;;;;;29.00;13.93;;;;;;;;;;6213486;22;20011;-86
2023/12/02 07:07:06;;;;;;;30.42;14.48;;;;;;;;;;6241995;22;20007;-86
2023/12/02 07:09:32;;;;;;;29.47;14.00;;;;;;;;;;6241697;22;20503;-86
2023/12/02 07:11:58;;;;;;;31.63;15.65;;;;;;;;;;6238691;22;20023;-85
2023/12/02 07:14:24;;;;;;;32.73;14.43;;;;;;;;;;6240719;22;20259;-85
2023/12/02 07:16:50;;;;;;;32.55;14.60;;;;;;;;;;6263438;22;20019;-85
2023/12/02 07:19:16;;;;;;;30.47;14.17;;;;;;;;;;6240219;22;20777;-85
2023/12/02 07:21:42;;;;;;;33.90;16.03;;;;;;;;;;6236251;22;20007;-85
2023/12/02 07:24:09;;;;;;;31.67;15.17;;;;;;;;;;6241763;22;20077;-85
2023/12/02 07:26:35;;;;;;;30.25;15.00;;;;;;;;;;6264140;22;20376;-87
2023/12/02 07:29:01;;;;;;;33.47;15.50;;;;;;;;;;6237353;22;20090;-88
2023/12/02 07:31:27;;;;;;;35.60;15.80;;;;;;;;;;6240539;22;20441;-88
2023/12/02 07:33:53;;;;;;;33.30;15.40;;;;;;;;;;6259600;22;20407;-87
2023/12/02 07:36:19;;;;;;;33.17;14.17;;;;;;;;;;6267225;22;20019;-87
2023/12/02 07:38:45;;;;;;;33.03;14.30;;;;;;;;;;6209328;22;20058;-87
2023/12/02 07:41:11;;;;;;;33.50;14.70;;;;;;;;;;6210874;22;20015;-87
2023/12/02 07:43:37;;;;;;;32.90;15.90;;;;;;;;;;6261255;22;20050;-86
2023/12/02 07:46:03;;;;;;;28.35;14.43;;;;;;;;;;6184105;22;20012;-87
2023/12/02 07:48:29;;;;;;;32.30;14.45;;;;;;;;;;6185781;22;20026;-89
2023/12/02 07:50:57;;;;;;;30.55;14.27;;;;;;;;;;6185951;22;20121;-88
2023/12/02 07:53:23;;;;;;;32.60;15.73;;;;;;;;;;6187397;22;20024;-87
2023/12/02 07:55:49;;;;;;;31.27;14.98;;;;;;;;;;6210917;22;20258;-87
2023/12/02 07:58:15;;;;;;;31.33;15.57;;;;;;;;;;6213415;22;20344;-87
2023/12/02 08:00:41;;;;;;;34.90;15.02;;;;;;;;;;6211401;22;20020;-87
2023/12/02 08:03:07;;;;;;;31.88;15.27;;;;;;;;;;6213523;22;20535;-87
2023/12/02 08:05:33;;;;;;;38.57;16.07;;;;;;;;;;6185643;22;20050;-88
2023/12/02 08:07:59;;;;;;;32.83;15.13;;;;;;;;;;6208699;22;20363;-87
2023/12/02 08:10:25;;;;;;;35.25;15.43;;;;;;;;;;6214503;22;20344;-87
2023/12/02 08:12:51;;;;;;;34.30;14.82;;;;;;;;;;6211329;22;20020;-87
2023/12/02 08:15:17;;;;;;;34.43;14.87;;;;;;;;;;6238461;22;20087;-88
2023/12/02 08:17:43;;;;;;;33.03;15.87;;;;;;;;;;6263334;22;20504;-89
2023/12/02 08:20:10;;;;;;;30.57;14.73;;;;;;;;;;6187991;22;20016;-87
2023/12/02 08:22:36;;;;;;;34.20;16.17;;;;;;;;;;6214140;22;20011;-87
2023/12/02 08:25:01;;;;;;;39.87;17.03;;;;;;;;;;6235622;22;20350;-88
2023/12/02 08:27:27;;;;;;;33.75;15.63;;;;;;;;;;6238223;22;20022;-88
2023/12/02 08:29:53;;;;;;;32.23;14.87;;;;;;;;;;6236750;22;20090;-88
2023/12/02 08:32:19;;;;;;;34.83;16.20;;;;;;;;;;6213432;22;20448;-87
2023/12/02 08:34:45;;;;;;;37.00;16.42;;;;;;;;;;6235941;22;20019;-87
2023/12/02 08:37:11;;;;;;;35.22;15.75;;;;;;;;;;6220085;22;20447;-87
2023/12/02 08:39:37;;;;;;;33.03;15.45;;;;;;;;;;6238269;22;20027;-87
2023/12/02 08:42:04;;;;;;;34.88;14.95;;;;;;;;;;6265939;22;20422;-88
2023/12/02 08:44:30;;;;;;;34.13;15.50;;;;;;;;;;6270037;22;20007;-87
2023/12/02 08:46:58;;;;;;;35.33;14.95;;;;;;;;;;6241501;22;20015;-88
2023/12/02 08:49:24;;;;;;;;;;;;;;;;;;6269998;22;20015;-88
2023/12/02 08:51:50;;;;;;;32.88;14.80;;;;;;;;;;6264722;22;19922;-88
2023/12/02 08:54:16;;;;;;;37.42;16.00;;;;;;;;;;6269306;22;20347;-88
2023/12/02 08:56:42;;;;;;;32.78;15.48;;;;;;;;;;6266629;22;20057;-88
2023/12/02 08:59:08;;;;;;;34.97;15.88;;;;;;;;;;6268974;22;20641;-87
2023/12/02 09:01:34;;;;;;;36.30;15.50;;;;;;;;;;6268459;22;20081;-87
2023/12/02 09:04:00;;;;;;;34.65;16.20;;;;;;;;;;6238947;22;20379;-87
2023/12/02 09:06:26;;;;;;;27.00;14.57;;;;;;;;;;6267244;22;20015;-88
2023/12/02 09:08:53;;;;;;;34.15;14.43;;;;;;;;;;6266912;22;20064;-88
2023/12/02 09:11:19;;;;;;;38.83;16.70;;;;;;;;;;6244473;22;20026;-87
2023/12/02 09:13:48;;;;;;;32.45;14.93;;;;;;;;;;6216426;22;20358;-87
2023/12/02 09:16:21;;;;;;;37.38;15.32;;;;;;;;;;6219083;22;20046;-87
2023/12/02 09:18:47;;;;;;;32.47;16.13;;;;;;;;;;6267493;22;20331;-87
2023/12/02 09:21:22;;;;;;;35.53;15.43;;;;;;;;;;6218463;22;20023;-88
2023/12/02 09:23:48;;;;;;;29.63;15.40;;;;;;;;;;6266286;22;20015;-88
2023/12/02 09:26:28;;;;;;;33.35;15.10;;;;;;;;;;6217108;22;20086;-94
2023/12/02 09:28:54;;;;;;;35.25;15.15;;;;;;;;;;6266307;22;20019;-88
2023/12/02 09:31:20;;;;;;;33.60;15.88;;;;;;;;;;6266123;22;20528;-87
2023/12/02 09:33:47;;;;;;;34.15;14.82;;;;;;;;;;6237068;22;20054;-87
2023/12/02 09:36:26;;;;;;;33.40;16.20;;;;;;;;;;6214130;22;20011;-88
2023/12/02 09:38:54;;;;;;;34.45;16.10;;;;;;;;;;6215517;22;20023;-88
2023/12/02 09:41:32;;;;;;;39.55;17.38;;;;;;;;;;6218641;22;20060;-88
2023/12/02 09:44:12;;;;;;;35.42;17.30;;;;;;;;;;6215096;22;20082;-87
2023/12/02 09:46:42;;;;;;;37.80;16.75;;;;;;;;;;6269216;22;20092;-88
2023/12/02 09:49:19;;;;;;;40.47;17.63;;;;;;;;;;6217983;22;20046;-88
2023/12/02 09:52:20;;;;;;;35.00;16.40;;;;;;;;;;6212826;22;20023;-88
2023/12/02 09:54:59;;;;;;;34.42;16.73;;;;;;;;;;6108807;23;20457;-89
2023/12/02 09:57:44;;;;;;;31.95;14.50;;;;;;;;;;6199908;22;20019;-88
2023/12/02 10:00:12;;;;;;;33.33;15.40;;;;;;;;;;6268281;22;20086;-88
2023/12/02 10:02:47;;;;;;;26.45;13.98;;;;;;;;;;6242088;22;20015;-88
2023/12/02 10:05:14;;;;;;;31.75;14.18;;;;;;;;;;6269285;22;20011;-88
2023/12/02 10:07:59;;;;;;;31.60;14.80;;;;;;;;;;6264388;22;20537;-89
2023/12/02 10:10:26;;;;;;;35.17;14.90;;;;;;;;;;6295351;22;20019;-88
2023/12/02 10:12:59;;;;;;;32.58;15.43;;;;;;;;;;6238920;22;20015;-89
2023/12/02 10:15:28;;;;;;;30.50;14.65;;;;;;;;;;6244534;22;20022;-88
2023/12/02 10:17:56;;;;;;;28.17;15.30;;;;;;;;;;6215710;22;20015;-89
2023/12/02 10:20:26;;;;;;;29.95;14.27;;;;;;;;;;6268648;22;20023;-89
2023/12/02 10:22:54;;;;;;;30.63;15.20;;;;;;;;;;6216760;22;20011;-89
2023/12/02 10:25:32;;;;;;;27.40;14.40;;;;;;;;;;6218248;22;20129;-90
2023/12/02 10:28:00;;;;;;;27.00;14.48;;;;;;;;;;6213897;22;20363;-88
2023/12/02 10:30:26;;;;;;;31.17;15.88;;;;;;;;;;6243222;22;20372;-88
2023/12/02 10:33:10;;;;;;;26.00;13.70;;;;;;;;;;6214792;22;20439;-89
2023/12/02 10:35:38;;;;;;;25.88;14.00;;;;;;;;;;6243319;22;20301;-88
2023/12/02 10:38:18;;;;;;;28.42;14.70;;;;;;;;;;6215097;22;20023;-87
2023/12/02 10:40:46;;;;;;;28.02;14.43;;;;;;;;;;6239614;22;20027;-89
2023/12/02 10:43:28;;;;;;;28.85;14.40;;;;;;;;;;6267021;22;20430;-88
2023/12/02 10:45:54;;;;;;;27.73;13.45;;;;;;;;;;6213889;22;20019;-88
2023/12/02 10:48:20;;;;;;;24.05;12.80;;;;;;;;;;6218026;22;20409;-88
2023/12/02 10:50:46;;;;;;;27.65;14.13;;;;;;;;;;6215388;22;20366;-89
2023/12/02 10:53:12;;;;;;;28.30;14.38;;;;;;;;;;6215324;22;20015;-88
2023/12/02 10:55:38;;;;;;;27.20;13.23;;;;;;;;;;6216870;22;20154;-88
2023/12/02 10:58:05;;;;;;;29.30;14.85;;;;;;;;;;6265921;22;20030;-88
2023/12/02 11:00:32;;;;;;;29.58;14.63;;;;;;;;;;6218207;22;20019;-89
2023/12/02 11:03:00;;;;;;;25.83;13.25;;;;;;;;;;6238575;22;20474;-88
2023/12/02 11:05:28;;;;;;;28.92;14.77;;;;;;;;;;6266372;22;20069;-87
2023/12/02 11:07:55;;;;;;;26.63;14.50;;;;;;;;;;6237082;22;20019;-88
2023/12/02 11:10:43;;;;;;;27.50;14.30;;;;;;;;;;6243610;22;20477;-90
2023/12/02 11:13:12;;;;;;;29.48;14.23;;;;;;;;;;6269904;22;20026;-92
2023/12/02 11:15:43;;;;;;;32.53;15.15;;;;;;;;;;6242818;22;20320;-88
2023/12/02 11:18:09;;;;;;;27.58;14.23;;;;;;;;;;6268293;22;20478;-88
2023/12/02 11:20:43;;;;;;;28.05;14.30;;;;;;;;;;6269730;22;20094;-89
2023/12/02 11:23:28;;;;;;;29.85;14.32;;;;;;;;;;6266878;22;20026;-88
2023/12/02 11:25:58;;;;;;;31.60;13.70;;;;;;;;;;6268254;22;20392;-88
2023/12/02 11:28:24;;;;;;;29.17;14.57;;;;;;;;;;6295568;22;20015;-87
2023/12/02 11:31:02;;;;;;;27.20;14.52;;;;;;;;;;6266215;22;20445;-88
2023/12/02 11:33:28;;;;;;;;;;;;;;;;;;6268010;22;20031;-88
2023/12/02 11:36:13;;;;;;;25.17;13.30;;;;;;;;;;6243066;22;19918;-88
2023/12/02 11:38:43;;;;;;;26.30;13.45;;;;;;;;;;6220010;22;20509;-89
2023/12/02 11:41:27;;;;;;;28.02;13.98;;;;;;;;;;6220535;22;20026;-88
2023/12/02 11:43:58;;;;;;;32.53;15.80;;;;;;;;;;6217885;22;20371;-88
2023/12/02 11:46:26;;;;;;;29.75;15.15;;;;;;;;;;6269795;22;20093;-88
2023/12/02 11:49:11;;;;;;;30.17;15.27;;;;;;;;;;6264851;22;20064;-88
2023/12/02 11:51:56;;;;;;;30.20;14.30;;;;;;;;;;6270209;22;20038;-88
2023/12/02 11:54:22;;;;;;;30.02;14.45;;;;;;;;;;6270493;22;20366;-88
2023/12/02 11:56:51;;;;;;;28.60;14.32;;;;;;;;;;6294624;22;20277;-88
2023/12/02 11:59:17;;;;;;;26.35;13.35;;;;;;;;;;6270490;22;20304;-88
2023/12/02 12:01:49;;;;;;;26.63;14.05;;;;;;;;;;6295319;22;20631;-89
2023/12/02 12:04:24;;;;;;;28.38;15.25;;;;;;;;;;6269838;22;20048;-88
2023/12/02 12:07:09;;;;;;;28.23;14.40;;;;;;;;;;6239882;22;20537;-88
2023/12/02 12:09:35;;;;;;;28.52;14.65;;;;;;;;;;6266625;22;20039;-88
2023/12/02 12:12:01;;;;;;;25.88;13.45;;;;;;;;;;6264453;22;20042;-88
2023/12/02 12:14:28;;;;;;;26.33;12.80;;;;;;;;;;6267532;22;20022;-88
2023/12/02 12:16:54;;;;;;;26.88;14.55;;;;;;;;;;6266639;22;20011;-88
2023/12/02 12:19:20;;;;;;;25.67;12.75;;;;;;;;;;6268114;22;20022;-88
2023/12/02 12:21:49;;;;;;;27.50;13.45;;;;;;;;;;6216332;22;20027;-88
2023/12/02 12:24:15;;;;;;;24.42;12.65;;;;;;;;;;6270328;22;20022;-88
2023/12/02 12:26:41;;;;;;;23.58;12.82;;;;;;;;;;6266258;22;20456;-88
2023/12/02 12:29:07;;;;;;;24.58;13.02;;;;;;;;;;6269855;22;20008;-88
2023/12/02 12:31:33;;;;;;;29.83;14.18;;;;;;;;;;6270383;22;20348;-88
2023/12/02 12:33:59;;;;;;;26.42;13.10;;;;;;;;;;6217130;22;20022;-88
2023/12/02 12:36:29;;;;;;;25.77;13.18;;;;;;;;;;6244975;22;20080;-88
2023/12/02 12:38:59;;;;;;;26.73;12.73;;;;;;;;;;6293954;22;20020;-88
2023/12/02 12:41:25;;;;;;;27.80;13.57;;;;;;;;;;6294528;22;20054;-88
2023/12/02 12:43:51;;;;;;;26.60;14.45;;;;;;;;;;6265934;22;20015;-88
2023/12/02 12:46:17;;;;;;;23.98;12.65;;;;;;;;;;6242302;22;20011;-88
2023/12/02 12:48:52;;;;;;;25.15;12.43;;;;;;;;;;6215297;22;20070;-88
2023/12/02 12:51:19;;;;;;;26.77;13.80;;;;;;;;;;6268531;22;20320;-88
2023/12/02 12:53:48;;;;;;;27.33;13.35;;;;;;;;;;6293422;22;20427;-88
2023/12/02 12:56:14;;;;;;;27.75;14.10;;;;;;;;;;6218765;22;20109;-88
2023/12/02 12:58:59;;;;;;;25.08;13.23;;;;;;;;;;6268227;22;20530;-88
2023/12/02 13:01:28;;;;;;;25.00;13.68;;;;;;;;;;6301726;22;20418;-88
2023/12/02 13:03:57;;;;;;;24.90;12.27;;;;;;;;;;6299399;22;20019;-88
2023/12/02 13:06:42;;;;;;;36.47;15.02;;;;;;;;;;6266127;22;20011;-89
2023/12/02 13:09:09;;;;;;;28.48;13.02;;;;;;;;;;6240853;22;20055;-89
2023/12/02 13:11:44;;;;;;;26.50;12.25;;;;;;;;;;6265869;22;20018;-88
2023/12/02 13:14:11;;;;;;;25.55;13.00;;;;;;;;;;6263790;22;20030;-88
2023/12/02 13:16:37;;;;;;;26.33;13.07;;;;;;;;;;6268086;22;20159;-88
2023/12/02 13:19:03;;;;;;;27.58;14.10;;;;;;;;;;6211792;22;20011;-88
2023/12/02 13:21:29;;;;;;;23.88;12.77;;;;;;;;;;6266569;22;20164;-88
2023/12/02 13:23:55;;;;;;;30.33;14.50;;;;;;;;;;6213807;22;20015;-88
2023/12/02 13:26:22;;;;;;;25.30;12.82;;;;;;;;;;6214919;22;20130;-88
2023/12/02 13:28:48;;;;;;;27.13;13.80;;;;;;;;;;6211935;22;20019;-88
2023/12/02 13:31:15;;;;;;;24.23;12.80;;;;;;;;;;6215508;22;20011;-88
2023/12/02 13:33:53;;;;;;;24.50;12.57;;;;;;;;;;6266377;22;20447;-88
2023/12/02 13:36:23;;;;;;;26.45;12.77;;;;;;;;;;6269408;22;20021;-88
2023/12/02 13:38:57;;;;;;;24.90;11.73;;;;;;;;;;6265814;22;20019;-88
2023/12/02 13:41:32;;;;;;;24.88;12.15;;;;;;;;;;6218760;22;20069;-88
2023/12/02 13:43:58;;;;;;;25.45;12.90;;;;;;;;;;6265120;22;20332;-88
2023/12/02 13:46:31;;;;;;;23.73;12.35;;;;;;;;;;6265161;22;20015;-89
2023/12/02 13:49:06;;;;;;;23.20;11.43;;;;;;;;;;6239808;22;20016;-88
2023/12/02 13:51:33;;;;;;;22.58;11.55;;;;;;;;;;6267861;22;20062;-88
2023/12/02 13:54:26;;;;;;;25.20;11.65;;;;;;;;;;6237677;22;20457;-88
2023/12/02 13:57:06;;;;;;;25.77;12.68;;;;;;;;;;6233251;22;20011;-89
2023/12/02 13:59:49;;;;;;;23.35;12.40;;;;;;;;;;6270102;22;20368;-89
2023/12/02 14:02:27;;;;;;;25.00;12.13;;;;;;;;;;6220101;22;20019;-89
2023/12/02 14:05:06;;;;;;;22.45;12.35;;;;;;;;;;6242346;22;20015;-91
2023/12/02 14:07:48;;;;;;;22.45;12.00;;;;;;;;;;6272148;22;20011;-92
2023/12/02 14:10:16;;;;;;;23.88;12.77;;;;;;;;;;6244315;22;20047;-93
2023/12/02 14:12:58;;;;;;;29.80;13.95;;;;;;;;;;6243886;22;20088;-93
2023/12/02 14:15:24;;;;;;;24.35;12.73;;;;;;;;;;6217763;22;20415;-88
2023/12/02 14:18:10;;;;;;;28.13;13.25;;;;;;;;;;6268025;22;20524;-88
2023/12/02 14:20:48;;;;;;;21.90;11.55;;;;;;;;;;6271767;22;20065;-92
2023/12/02 14:23:17;;;;;;;23.95;12.13;;;;;;;;;;6269700;22;20022;-96
2023/12/02 14:25:52;;;;;;;20.70;10.88;;;;;;;;;;6240387;22;20007;-94
2023/12/02 14:28:21;;;;;;;25.33;12.63;;;;;;;;;;6242650;22;20065;-90
2023/12/02 14:30:53;;;;;;;22.20;10.55;;;;;;;;;;6266152;22;20019;-90
2023/12/02 14:37:03;;;;;;;21.90;11.15;;;;;;;;;;6259000;22;20023;-90
2023/12/02 14:40:20;;;;;;;;;;;;;;;;;;;;;
2023/12/02 14:42:46;;;;;;;21.27;10.75;;;;;;;;;;6279754;22;20382;-90
2023/12/02 14:45:12;;;;;;;21.05;10.95;;;;;;;;;;6242807;22;20015;-91
2023/12/02 14:47:41;;;;;;;22.13;11.60;;;;;;;;;;6244706;22;20062;-91
2023/12/02 14:50:10;;;;;;;20.42;11.00;;;;;;;;;;6220464;22;20019;-91
2023/12/02 14:52:46;;;;;;;25.40;12.30;;;;;;;;;;6219269;22;20137;-91
2023/12/02 14:55:12;;;;;;;21.45;11.45;;;;;;;;;;6257344;22;20019;-91
2023/12/02 14:57:38;;;;;;;20.25;10.77;;;;;;;;;;6219530;22;20031;-91
2023/12/02 15:00:10;;;;;;;22.13;10.48;;;;;;;;;;6217740;22;20016;-91
2023/12/02 15:02:37;;;;;;;20.27;10.88;;;;;;;;;;6216007;22;20015;-91
2023/12/02 15:05:06;;;;;;;23.55;10.63;;;;;;;;;;6239989;22;20419;-91
2023/12/02 15:07:33;;;;;;;19.73;9.85;;;;;;;;;;6265970;22;20348;-91
2023/12/02 15:09:59;;;;;;;19.17;9.27;;;;;;;;;;6217082;22;20133;-91
2023/12/02 15:12:26;;;;;;;20.45;10.45;;;;;;;;;;6214010;22;20019;-91
2023/12/02 15:14:53;;;;;;;17.98;9.82;;;;;;;;;;6211960;22;20297;-91
2023/12/02 15:17:19;;;;;;;20.35;9.88;;;;;;;;;;6238102;22;20015;-90
2023/12/02 15:19:46;;;;;;;23.20;10.80;;;;;;;;;;6214583;22;20026;-91
2023/12/02 15:22:12;;;;;;;15.80;9.85;;;;;;;;;;6214954;22;20007;-91
2023/12/02 15:24:38;;;;;;;20.98;10.07;;;;;;;;;;6266950;22;20686;-91
2023/12/02 15:27:07;;;;;;;25.02;12.10;;;;;;;;;;6241108;22;20305;-91
2023/12/02 15:29:33;;;;;;;22.58;11.10;;;;;;;;;;6267762;22;20037;-91
2023/12/02 15:31:59;;;;;;;24.40;12.18;;;;;;;;;;6267319;22;20015;-91
2023/12/02 15:34:25;;;;;;;27.27;12.70;;;;;;;;;;6220900;22;20427;-91
2023/12/02 15:36:52;;;;;;;22.95;11.20;;;;;;;;;;6268475;22;20019;-91
2023/12/02 15:39:21;;;;;;;31.45;14.50;;;;;;;;;;6220730;22;20304;-91
2023/12/02 15:41:47;;;;;;;37.97;22.60;;;;;;;;;;6218211;22;20019;-91
2023/12/02 15:44:13;;;;;;;32.97;18.13;;;;;;;;;;6271313;22;20019;-91
2023/12/02 15:46:39;;;;;;;31.85;16.00;;;;;;;;;;6246484;22;20011;-91
2023/12/02 15:49:09;;;;;;;57.10;27.98;;;;;;;;;;6273119;22;20077;-91
2023/12/02 15:51:36;;;;;;;57.45;29.58;;;;;;;;;;6245406;22;20023;-90
2023/12/02 15:54:10;;;;;;;57.05;30.60;;;;;;;;;;6218023;22;20023;-90
2023/12/02 15:56:36;;;;;;;53.92;27.70;;;;;;;;;;6219048;22;20420;-91
2023/12/02 15:59:02;;;;;;;43.75;22.02;;;;;;;;;;6268275;22;20478;-91
2023/12/02 16:01:31;;;;;;;49.13;26.02;;;;;;;;;;6269220;22;20023;-96
2023/12/02 16:03:58;;;;;;;46.70;23.85;;;;;;;;;;6269624;22;20087;-89
2023/12/02 16:06:24;;;;;;;41.60;19.13;;;;;;;;;;6243715;22;20015;-90
2023/12/02 16:08:50;;;;;;;41.78;20.88;;;;;;;;;;6241594;22;20011;-91